createdAt,value
2022-08-05T00:01:48.366Z,71.60
2022-08-05T00:04:19.696Z,71.60
2022-08-05T00:06:51.681Z,71.60
2022-08-05T00:09:20.688Z,71.50
2022-08-05T00:11:55.803Z,71.70
2022-08-05T00:14:29.103Z,71.70
2022-08-05T00:16:58.494Z,71.60
2022-08-05T00:19:33.374Z,71.60
2022-08-05T00:22:02.765Z,71.70
2022-08-05T00:24:32.834Z,71.70
2022-08-05T00:27:04.531Z,71.60
2022-08-05T00:29:38.789Z,71.70
2022-08-05T00:32:12.278Z,71.70
2022-08-05T00:35:03.445Z,71.80
2022-08-05T00:37:51.322Z,71.90
2022-08-05T00:40:26.780Z,71.70
2022-08-05T00:42:58.326Z,71.80
2022-08-05T00:45:38.446Z,71.80
2022-08-05T00:48:08.260Z,71.90
2022-08-05T00:50:41.373Z,71.90
2022-08-05T00:53:45.329Z,71.90
2022-08-05T00:55:59.854Z,72.00
2022-08-05T00:58:28.845Z,72.20
2022-08-05T01:00:57.686Z,72.10
2022-08-05T01:03:30.857Z,72.10
2022-08-05T01:06:05.349Z,72.10
2022-08-05T01:08:42.737Z,72.20
2022-08-05T01:11:22.535Z,72.20
2022-08-05T01:14:08.735Z,72.20
2022-08-05T01:16:41.829Z,72.30
2022-08-05T01:19:36.795Z,72.30
2022-08-05T01:22:24.438Z,72.30
2022-08-05T01:25:14.201Z,72.20
2022-08-05T01:28:00.796Z,72.10
2022-08-05T01:30:34.023Z,72.00
2022-08-05T01:33:04.326Z,72.10
2022-08-05T01:35:52.038Z,71.90
2022-08-05T01:38:27.101Z,71.90
2022-08-05T01:40:59.020Z,72.00
2022-08-05T01:43:30.046Z,72.10
2022-08-05T01:46:06.958Z,72.40
2022-08-05T01:48:45.836Z,72.50
2022-08-05T01:51:37.709Z,72.60
2022-08-05T01:54:07.395Z,72.70
2022-08-05T01:58:12.771Z,72.80
2022-08-05T01:59:32.358Z,73.00
2022-08-05T02:02:04.351Z,73.20
2022-08-05T02:04:40.607Z,73.30
2022-08-05T02:07:30.401Z,73.30
2022-08-05T02:09:59.481Z,73.50
2022-08-05T02:12:35.860Z,73.80
2022-08-05T02:15:12.122Z,73.90
2022-08-05T02:18:31.449Z,74.00
2022-08-05T02:20:39.045Z,74.00
2022-08-05T02:23:30.551Z,73.90
2022-08-05T02:26:04.485Z,74.10
2022-08-05T02:28:41.558Z,74.20
2022-08-05T02:31:14.521Z,74.40
2022-08-05T02:33:48.414Z,74.60
2022-08-05T02:36:19.211Z,74.70
2022-08-05T02:38:52.818Z,74.80
2022-08-05T02:41:22.973Z,75.00
2022-08-05T02:44:06.098Z,75.20
2022-08-05T02:46:53.595Z,75.40
2022-08-05T02:49:36.179Z,75.50
2022-08-05T02:52:09.295Z,75.70
2022-08-05T02:54:41.021Z,75.70
2022-08-05T02:58:08.519Z,75.80
2022-08-05T03:00:01.435Z,75.80
2022-08-05T03:02:34.686Z,75.80
2022-08-05T03:05:03.401Z,76.40
2022-08-05T03:07:59.272Z,76.00
2022-08-05T03:10:25.061Z,76.00
2022-08-05T03:12:55.214Z,76.10
2022-08-05T03:15:24.298Z,76.30
2022-08-05T03:17:57.741Z,76.20
2022-08-05T03:20:26.684Z,76.30
2022-08-05T03:22:57.500Z,76.50
2022-08-05T03:26:03.800Z,76.70
2022-08-05T03:28:18.737Z,76.90
2022-08-05T03:30:50.811Z,76.90
2022-08-05T03:33:21.860Z,77.00
2022-08-05T03:35:51.634Z,77.10
2022-08-05T03:38:23.816Z,77.20
2022-08-05T03:41:08.508Z,77.20
2022-08-05T03:44:08.666Z,78.00
2022-08-05T03:46:29.936Z,77.50
2022-08-05T03:49:02.463Z,77.70
2022-08-05T03:52:37.323Z,77.70
2022-08-05T03:55:51.581Z,77.70
2022-08-05T03:57:17.954Z,77.80
2022-08-05T03:59:54.844Z,77.90
2022-08-05T04:02:38.681Z,78.00
2022-08-05T04:05:16.365Z,78.00
2022-08-05T04:07:58.029Z,78.10
2022-08-05T04:10:30.922Z,78.10
2022-08-05T04:13:04.227Z,78.10
2022-08-05T04:15:36.240Z,78.40
2022-08-05T04:18:07.153Z,78.40
2022-08-05T04:20:41.223Z,78.60
2022-08-05T04:23:12.553Z,78.80
2022-08-05T04:26:00.295Z,79.00
2022-08-05T04:28:31.709Z,79.10
2022-08-05T04:31:01.448Z,79.10
2022-08-05T04:33:54.626Z,79.20
2022-08-05T04:36:46.272Z,79.30
2022-08-05T04:39:09.870Z,79.30
2022-08-05T04:41:40.023Z,79.20
2022-08-05T04:44:09.988Z,79.10
2022-08-05T04:46:39.004Z,79.00
2022-08-05T04:49:14.653Z,79.10
2022-08-05T04:51:45.770Z,79.20
2022-08-05T04:54:15.968Z,79.10
2022-08-05T04:56:44.489Z,79.10
2022-08-05T04:59:23.983Z,79.10
2022-08-05T05:02:06.744Z,78.90
2022-08-05T05:04:38.127Z,78.70
2022-08-05T05:07:09.580Z,78.90
2022-08-05T05:09:56.748Z,78.90
2022-08-05T05:12:27.343Z,78.80
2022-08-05T05:14:56.507Z,78.60
2022-08-05T05:17:56.159Z,78.60
2022-08-05T05:20:15.220Z,78.30
2022-08-05T05:22:50.542Z,78.50
2022-08-05T05:25:41.074Z,78.50
2022-08-05T05:28:09.949Z,78.40
2022-08-05T05:30:38.523Z,78.50
2022-08-05T05:33:16.278Z,79.30
2022-08-05T05:35:47.093Z,78.60
2022-08-05T05:38:22.387Z,78.60
2022-08-05T05:40:56.276Z,78.50
2022-08-05T05:43:54.613Z,78.50
2022-08-05T05:46:16.043Z,78.40
2022-08-05T05:48:47.931Z,78.30
2022-08-05T05:51:21.283Z,78.20
2022-08-05T05:53:57.392Z,78.20
2022-08-05T05:56:32.675Z,78.00
2022-08-05T05:59:05.148Z,77.70
2022-08-05T06:01:57.884Z,77.50
2022-08-05T06:04:26.839Z,77.40
2022-08-05T06:06:55.704Z,77.30
2022-08-05T06:10:01.480Z,77.10
2022-08-05T06:12:35.452Z,76.70
2022-08-05T06:15:23.700Z,76.50
2022-08-05T06:17:54.607Z,76.10
2022-08-05T06:20:23.727Z,75.60
2022-08-05T06:22:52.187Z,74.90
2022-08-05T06:25:58.964Z,74.20
2022-08-05T06:28:21.542Z,73.60
2022-08-05T06:30:50.594Z,73.30
2022-08-05T06:33:20.308Z,72.70
2022-08-05T06:36:10.185Z,72.10
2022-08-05T06:38:38.925Z,71.40
2022-08-05T06:41:17.275Z,70.70
2022-08-05T06:43:57.999Z,70.40
2022-08-05T06:46:29.836Z,70.00
2022-08-05T06:49:01.119Z,69.40
2022-08-05T06:51:32.139Z,68.80
2022-08-05T06:54:02.081Z,68.30
2022-08-05T06:56:34.511Z,67.80
2022-08-05T06:59:04.011Z,67.80
2022-08-05T07:01:40.675Z,68.10
2022-08-05T07:04:11.020Z,66.90
2022-08-05T07:06:42.724Z,66.60
2022-08-05T07:09:11.304Z,66.30
2022-08-05T07:11:49.444Z,65.90
2022-08-05T07:14:37.675Z,65.60
2022-08-05T07:17:58.981Z,65.30
2022-08-05T07:22:45.735Z,64.90
2022-08-05T07:25:54.182Z,64.00
2022-08-05T07:28:11.508Z,63.80
2022-08-05T07:30:41.130Z,63.40
2022-08-05T07:33:16.007Z,63.30
2022-08-05T07:36:05.228Z,62.60
2022-08-05T07:38:42.655Z,62.10
2022-08-05T07:42:08.001Z,61.30
2022-08-05T07:44:20.870Z,60.40
2022-08-05T07:46:50.680Z,60.40
2022-08-05T07:49:20.715Z,59.90
2022-08-05T07:51:54.336Z,59.70
2022-08-05T07:54:30.735Z,59.80
2022-08-05T07:57:22.667Z,59.80
2022-08-05T07:59:53.704Z,59.70
2022-08-05T08:02:26.618Z,59.30
2022-08-05T08:05:18.274Z,58.90
2022-08-05T08:07:59.838Z,58.80
2022-08-05T08:10:30.315Z,58.50
2022-08-05T08:12:59.333Z,58.60
2022-08-05T08:16:33.709Z,58.70
2022-08-05T08:18:23.110Z,58.70
2022-08-05T08:21:02.504Z,58.00
2022-08-05T08:24:02.055Z,57.50
2022-08-05T08:26:29.604Z,57.80
2022-08-05T08:29:21.960Z,57.30
2022-08-05T08:31:49.267Z,56.70
2022-08-05T08:34:36.146Z,56.90
2022-08-05T08:37:05.622Z,57.00
2022-08-05T08:39:37.418Z,56.90
2022-08-05T08:42:15.255Z,56.30
2022-08-05T08:45:19.418Z,56.20
2022-08-05T08:48:07.113Z,56.30
2022-08-05T08:51:03.182Z,56.20
2022-08-05T08:53:26.852Z,56.30
2022-08-05T08:56:04.981Z,55.70
2022-08-05T08:58:43.192Z,55.90
2022-08-05T09:01:15.762Z,55.60
2022-08-05T09:03:47.415Z,55.50
2022-08-05T09:06:21.069Z,55.00
2022-08-05T09:09:11.605Z,54.80
2022-08-05T09:11:51.638Z,54.90
2022-08-05T09:14:58.319Z,54.60
2022-08-05T09:17:40.052Z,54.40
2022-08-05T09:20:05.275Z,54.60
2022-08-05T09:22:51.799Z,54.40
2022-08-05T09:25:24.530Z,54.60
2022-08-05T09:28:14.030Z,53.80
2022-08-05T09:30:56.943Z,53.50
2022-08-05T09:33:35.119Z,53.90
2022-08-05T09:36:11.531Z,53.30
2022-08-05T09:38:40.486Z,53.10
2022-08-05T09:41:10.216Z,53.00
2022-08-05T09:43:41.158Z,52.60
2022-08-05T09:46:28.043Z,52.60
2022-08-05T09:49:07.131Z,52.20
2022-08-05T09:51:39.890Z,52.50
2022-08-05T09:54:10.075Z,52.40
2022-08-05T09:56:39.778Z,52.40
2022-08-05T09:59:10.054Z,52.20
2022-08-05T10:01:47.618Z,52.10
2022-08-05T10:04:17.521Z,51.80
2022-08-05T10:06:58.888Z,52.10
2022-08-05T10:09:29.528Z,52.00
2022-08-05T10:12:30.801Z,52.00
2022-08-05T10:15:16.395Z,51.80
2022-08-05T10:17:56.645Z,51.90
2022-08-05T10:20:26.792Z,52.10
2022-08-05T10:22:58.518Z,51.30
2022-08-05T10:25:27.113Z,51.30
2022-08-05T10:28:13.528Z,51.00
2022-08-05T10:32:48.183Z,51.10
2022-08-05T10:33:35.235Z,50.90
2022-08-05T10:36:05.658Z,51.10
2022-08-05T10:38:36.803Z,51.20
2022-08-05T10:41:12.418Z,50.90
2022-08-05T10:43:48.689Z,50.90
2022-08-05T10:46:23.771Z,50.40
2022-08-05T10:49:01.463Z,50.00
2022-08-05T10:51:57.469Z,49.90
2022-08-05T10:54:56.137Z,49.90
2022-08-05T10:57:32.325Z,50.20
2022-08-05T11:00:16.095Z,50.30
2022-08-05T11:03:25.731Z,50.30
2022-08-05T11:06:15.128Z,49.60
2022-08-05T11:08:59.916Z,49.40
2022-08-05T11:11:44.460Z,49.30
2022-08-05T11:14:57.683Z,49.00
2022-08-05T11:17:59.655Z,49.20
2022-08-05T11:20:34.688Z,49.10
2022-08-05T11:23:25.314Z,48.80
2022-08-05T11:26:04.344Z,48.30
2022-08-05T11:28:59.409Z,47.60
2022-08-05T11:31:53.979Z,47.40
2022-08-05T11:34:37.450Z,46.60
2022-08-05T11:38:37.005Z,47.20
2022-08-05T11:39:55.465Z,47.20
2022-08-05T11:42:29.527Z,47.00
2022-08-05T11:45:03.673Z,46.80
2022-08-05T11:47:49.690Z,46.80
2022-08-05T11:50:19.179Z,46.70
2022-08-05T11:52:49.562Z,46.40
2022-08-05T11:55:19.937Z,46.00
2022-08-05T11:58:09.811Z,46.30
2022-08-05T12:00:39.144Z,46.40
2022-08-05T12:03:24.069Z,46.10
2022-08-05T12:06:19.309Z,46.10
2022-08-05T12:08:51.046Z,46.30
2022-08-05T12:11:21.124Z,46.20
2022-08-05T12:13:58.768Z,45.80
2022-08-05T12:16:30.421Z,45.60
2022-08-05T12:18:59.100Z,45.70
2022-08-05T12:21:30.202Z,45.90
2022-08-05T12:24:04.562Z,46.10
2022-08-05T12:26:34.714Z,46.10
2022-08-05T12:29:03.566Z,45.60
2022-08-05T12:31:46.081Z,45.70
2022-08-05T12:34:21.076Z,45.80
2022-08-05T12:36:51.184Z,45.60
2022-08-05T12:39:20.775Z,45.70
2022-08-05T12:41:49.302Z,45.40
2022-08-05T12:44:33.161Z,45.30
2022-08-05T12:47:04.146Z,44.90
2022-08-05T12:50:03.316Z,44.50
2022-08-05T12:52:38.673Z,44.20
2022-08-05T12:55:22.483Z,44.50
2022-08-05T12:58:50.016Z,44.80
2022-08-05T13:02:01.453Z,44.80
2022-08-05T13:03:38.977Z,44.70
2022-08-05T13:06:13.848Z,44.80
2022-08-05T13:08:46.060Z,44.20
2022-08-05T13:12:02.352Z,43.60
2022-08-05T13:14:36.371Z,43.60
2022-08-05T13:17:09.840Z,43.70
2022-08-05T13:19:51.642Z,44.00
2022-08-05T13:22:27.985Z,44.00
2022-08-05T13:25:00.737Z,44.10
2022-08-05T13:27:37.376Z,44.40
2022-08-05T13:30:33.561Z,44.70
2022-08-05T13:34:21.275Z,45.10
2022-08-05T13:36:06.401Z,45.20
2022-08-05T13:38:42.302Z,45.20
2022-08-05T13:41:11.802Z,45.10
2022-08-05T13:43:45.923Z,45.50
2022-08-05T13:46:43.751Z,45.70
2022-08-05T13:49:12.996Z,45.90
2022-08-05T13:51:46.559Z,46.20
2022-08-05T13:54:16.621Z,46.60
2022-08-05T13:56:50.797Z,47.70
2022-08-05T13:59:24.276Z,47.30
2022-08-05T14:01:56.497Z,47.60
2022-08-05T14:04:49.081Z,48.00
2022-08-05T14:07:56.996Z,48.30
2022-08-05T14:10:31.139Z,48.50
2022-08-05T14:13:00.085Z,48.80
2022-08-05T14:16:07.848Z,49.00
2022-08-05T14:18:23.386Z,49.30
2022-08-05T14:20:54.484Z,49.40
2022-08-05T14:23:26.637Z,49.70
2022-08-05T14:25:59.072Z,49.80
2022-08-05T14:28:29.027Z,50.00
2022-08-05T14:30:57.773Z,50.20
2022-08-05T14:33:26.380Z,50.40
2022-08-05T14:35:55.046Z,50.60
2022-08-05T14:38:32.041Z,50.70
2022-08-05T14:41:06.304Z,50.90
2022-08-05T14:44:00.073Z,50.70
2022-08-05T14:46:27.993Z,50.40
2022-08-05T14:48:58.532Z,50.30
2022-08-05T14:51:30.793Z,50.20
2022-08-05T14:54:27.770Z,50.10
2022-08-05T14:56:51.045Z,49.70
2022-08-05T14:59:23.609Z,49.70
2022-08-05T15:01:53.751Z,49.70
2022-08-05T15:04:22.885Z,49.80
2022-08-05T15:06:51.482Z,49.80
2022-08-05T15:09:54.100Z,49.90
2022-08-05T15:12:16.447Z,50.00
2022-08-05T15:14:50.139Z,50.20
2022-08-05T15:17:46.815Z,50.40
2022-08-05T15:20:15.695Z,50.50
2022-08-05T15:22:52.320Z,50.50
2022-08-05T15:25:41.370Z,50.60
2022-08-05T15:28:14.988Z,50.60
2022-08-05T15:30:46.235Z,50.70
2022-08-05T15:34:05.291Z,50.90
2022-08-05T15:36:04.575Z,50.80
2022-08-05T15:38:40.940Z,50.90
2022-08-05T15:41:21.973Z,51.00
2022-08-05T15:43:52.328Z,51.20
2022-08-05T15:46:25.119Z,51.30
2022-08-05T15:49:00.810Z,51.30
2022-08-05T15:52:09.996Z,51.10
2022-08-05T15:54:34.713Z,51.20
2022-08-05T15:57:07.379Z,51.30
2022-08-05T15:59:38.147Z,51.50
2022-08-05T16:02:09.647Z,51.60
2022-08-05T16:04:43.981Z,51.70
2022-08-05T16:07:13.343Z,51.90
2022-08-05T16:09:43.613Z,51.90
2022-08-05T16:12:13.706Z,52.10
2022-08-05T16:14:44.046Z,52.10
2022-08-05T16:17:13.807Z,52.40
2022-08-05T16:20:04.168Z,52.50
2022-08-05T16:22:50.616Z,52.70
2022-08-05T16:25:19.229Z,52.90
2022-08-05T16:28:02.125Z,53.00
2022-08-05T16:30:36.110Z,53.30
2022-08-05T16:33:05.083Z,53.40
2022-08-05T16:35:42.018Z,53.60
2022-08-05T16:38:24.728Z,53.80
2022-08-05T16:41:00.703Z,53.90
2022-08-05T16:43:31.997Z,54.10
2022-08-05T16:46:05.295Z,54.40
2022-08-05T16:48:38.386Z,54.70
2022-08-05T16:51:09.636Z,54.90
2022-08-05T16:54:05.728Z,55.00
2022-08-05T16:56:29.591Z,55.30
2022-08-05T16:59:00.961Z,55.30
2022-08-05T17:01:54.221Z,55.60
2022-08-05T17:04:43.246Z,55.70
2022-08-05T17:07:11.874Z,55.90
2022-08-05T17:09:58.228Z,56.10
2022-08-05T17:12:50.457Z,56.20
2022-08-05T17:15:19.452Z,56.50
2022-08-05T17:18:07.252Z,56.60
2022-08-05T17:20:44.215Z,56.70
2022-08-05T17:24:05.631Z,56.90
2022-08-05T17:26:03.038Z,57.10
2022-08-05T17:28:31.675Z,57.20
2022-08-05T17:31:08.413Z,57.40
2022-08-05T17:33:51.008Z,57.40
2022-08-05T17:36:33.881Z,57.40
2022-08-05T17:39:05.201Z,57.40
2022-08-05T17:42:17.919Z,57.50
2022-08-05T17:44:50.161Z,57.70
2022-08-05T17:47:22.261Z,57.90
2022-08-05T17:50:03.788Z,58.00
2022-08-05T17:52:54.653Z,58.10
2022-08-05T17:55:27.278Z,58.30
2022-08-05T17:58:03.045Z,58.40
2022-08-05T18:00:32.959Z,58.60
2022-08-05T18:03:04.142Z,58.80
2022-08-05T18:05:36.806Z,59.00
2022-08-05T18:08:06.183Z,59.00
2022-08-05T18:10:35.173Z,59.20
2022-08-05T18:13:12.193Z,59.30
2022-08-05T18:15:41.216Z,59.60
2022-08-05T18:18:11.613Z,59.60
2022-08-05T18:20:40.442Z,59.90
2022-08-05T18:23:12.410Z,59.90
2022-08-05T18:25:45.403Z,60.30
2022-08-05T18:28:16.267Z,60.40
2022-08-05T18:30:45.965Z,60.70
2022-08-05T18:33:22.991Z,61.00
2022-08-05T18:36:15.363Z,61.20
2022-08-05T18:38:44.357Z,61.50
2022-08-05T18:41:54.170Z,61.80
2022-08-05T18:44:06.353Z,61.90
2022-08-05T18:46:36.498Z,62.10
2022-08-05T18:49:20.174Z,62.10
2022-08-05T18:52:08.968Z,62.20
2022-08-05T18:54:41.189Z,62.10
2022-08-05T18:57:36.269Z,62.20
2022-08-05T19:00:19.945Z,62.30
2022-08-05T19:02:49.553Z,62.30
2022-08-05T19:06:11.890Z,62.30
2022-08-05T19:08:31.294Z,62.30
2022-08-05T19:11:04.686Z,62.30
2022-08-05T19:13:36.959Z,62.40
2022-08-05T19:16:25.116Z,62.50
2022-08-05T19:18:56.606Z,62.50
2022-08-05T19:21:34.477Z,62.70
2022-08-05T19:24:08.989Z,62.70
2022-08-05T19:26:43.899Z,62.80
2022-08-05T19:29:26.726Z,62.80
2022-08-05T19:32:08.689Z,62.90
2022-08-05T19:34:59.031Z,63.00
2022-08-05T19:37:47.349Z,63.00
2022-08-05T19:40:24.568Z,63.20
2022-08-05T19:43:04.731Z,63.30
2022-08-05T19:45:36.837Z,63.50
2022-08-05T19:48:06.529Z,63.60
2022-08-05T19:50:35.300Z,63.70
2022-08-05T19:53:09.411Z,63.70
2022-08-05T19:56:14.278Z,63.90
2022-08-05T19:58:30.109Z,63.90
2022-08-05T20:00:59.185Z,64.00
2022-08-05T20:03:40.634Z,64.10
2022-08-05T20:06:29.604Z,64.20
2022-08-05T20:09:06.093Z,64.20
2022-08-05T20:11:42.638Z,64.30
2022-08-05T20:14:26.596Z,64.40
2022-08-05T20:16:56.588Z,64.50
2022-08-05T20:19:25.193Z,64.50
2022-08-05T20:22:23.106Z,64.60
2022-08-05T20:24:57.182Z,64.80
2022-08-05T20:27:27.409Z,64.90
2022-08-05T20:30:11.613Z,65.00
2022-08-05T20:32:58.631Z,64.90
2022-08-05T20:35:27.173Z,65.00
2022-08-05T20:38:05.419Z,65.10
2022-08-05T20:40:37.327Z,65.20
2022-08-05T20:43:06.496Z,65.20
2022-08-05T20:45:55.865Z,65.30
2022-08-05T20:48:23.707Z,65.40
2022-08-05T20:50:53.416Z,65.60
2022-08-05T20:53:36.477Z,65.80
2022-08-05T20:56:27.681Z,65.90
2022-08-05T20:59:04.038Z,65.90
2022-08-05T21:01:43.217Z,65.90
2022-08-05T21:04:11.784Z,66.00
2022-08-05T21:06:45.337Z,66.00
2022-08-05T21:09:15.000Z,66.20
2022-08-05T21:12:07.533Z,66.30
2022-08-05T21:14:35.008Z,66.40
2022-08-05T21:17:04.928Z,66.50
2022-08-05T21:19:47.231Z,66.70
2022-08-05T21:22:21.620Z,66.70
2022-08-05T21:24:52.503Z,66.80
2022-08-05T21:27:25.306Z,66.90
2022-08-05T21:29:56.198Z,66.90
2022-08-05T21:32:27.073Z,67.00
2022-08-05T21:35:18.069Z,67.10
2022-08-05T21:37:53.168Z,67.20
2022-08-05T21:40:23.358Z,67.30
2022-08-05T21:42:54.201Z,67.40
2022-08-05T21:45:56.191Z,67.60
2022-08-05T21:48:16.473Z,67.80
2022-08-05T21:50:54.073Z,67.90
2022-08-05T21:53:27.051Z,68.00
2022-08-05T21:56:05.841Z,68.10
2022-08-05T21:58:57.070Z,68.10
2022-08-05T22:01:27.051Z,68.30
2022-08-05T22:03:56.130Z,68.50
2022-08-05T22:06:34.876Z,68.60
2022-08-05T22:09:14.045Z,68.60
2022-08-05T22:11:46.688Z,68.80
2022-08-05T22:14:35.393Z,68.90
2022-08-05T22:17:07.430Z,69.00
2022-08-05T22:20:00.332Z,69.10
2022-08-05T22:22:28.137Z,69.30
2022-08-05T22:25:21.085Z,69.30
2022-08-05T22:28:04.907Z,69.40
2022-08-05T22:30:44.162Z,69.50
2022-08-05T22:33:57.849Z,70.40
2022-08-05T22:36:31.108Z,69.80
2022-08-05T22:39:09.098Z,69.80
2022-08-05T22:42:11.676Z,69.90
2022-08-05T22:44:28.915Z,69.90
2022-08-05T22:46:58.885Z,70.00
2022-08-05T22:50:19.282Z,70.20
2022-08-05T22:52:22.795Z,70.30
2022-08-05T22:55:21.349Z,70.30
2022-08-05T22:57:50.810Z,70.50
2022-08-05T23:00:20.845Z,70.70
2022-08-05T23:03:13.486Z,70.90
2022-08-05T23:05:42.431Z,71.10
2022-08-05T23:08:31.165Z,71.20
2022-08-05T23:10:59.743Z,71.30
2022-08-05T23:13:28.997Z,71.40
2022-08-05T23:15:58.553Z,71.60
2022-08-05T23:18:29.562Z,71.70
2022-08-05T23:21:01.090Z,71.90
2022-08-05T23:23:29.959Z,72.00
2022-08-05T23:26:02.543Z,72.10
2022-08-05T23:28:31.537Z,72.10
2022-08-05T23:31:02.234Z,72.30
2022-08-05T23:34:05.690Z,72.30
2022-08-05T23:36:40.054Z,72.50
2022-08-05T23:39:17.080Z,72.80
2022-08-05T23:41:52.536Z,72.70
2022-08-05T23:44:27.896Z,72.90
2022-08-05T23:47:00.220Z,73.00
2022-08-05T23:49:34.103Z,73.00
2022-08-05T23:52:36.003Z,73.10
2022-08-05T23:55:07.227Z,73.30
2022-08-05T23:57:37.837Z,73.40
